createdAt,value
2024-02-03T00:01:28.003Z,1.92
2024-02-03T00:03:58.560Z,2.10
2024-02-03T00:06:31.484Z,1.70
2024-02-03T00:09:01.919Z,1.90
2024-02-03T00:11:32.316Z,1.92
2024-02-03T00:14:02.425Z,1.77
2024-02-03T00:16:33.003Z,1.88
2024-02-03T00:19:03.326Z,1.77
2024-02-03T00:21:36.359Z,1.58
2024-02-03T00:24:07.393Z,1.70
2024-02-03T00:26:37.996Z,1.95
2024-02-03T00:29:08.180Z,1.73
2024-02-03T00:31:38.304Z,2.00
2024-02-03T00:34:08.647Z,2.15
2024-02-03T00:36:41.645Z,1.73
2024-02-03T00:39:11.989Z,1.65
2024-02-03T00:41:42.345Z,1.48
2024-02-03T00:44:13.327Z,1.98
2024-02-03T00:46:43.562Z,1.85
2024-02-03T00:49:13.947Z,1.65
2024-02-03T00:51:47.506Z,1.52
2024-02-03T00:54:17.988Z,1.80
2024-02-03T00:56:48.155Z,1.92
2024-02-03T00:59:18.405Z,1.42
2024-02-03T01:01:48.666Z,1.92
2024-02-03T01:04:19.194Z,1.60
2024-02-03T01:06:55.695Z,1.40
2024-02-03T01:09:25.993Z,1.65
2024-02-03T01:11:56.169Z,1.70
2024-02-03T01:14:26.499Z,1.65
2024-02-03T01:16:56.703Z,1.63
2024-02-03T01:19:26.930Z,1.63
2024-02-03T01:21:59.818Z,1.45
2024-02-03T01:24:30.040Z,1.77
2024-02-03T01:26:57.771Z,1.60
2024-02-03T01:29:29.731Z,1.70
2024-02-03T01:32:00.045Z,1.40
2024-02-03T01:34:30.346Z,1.67
2024-02-03T01:37:03.140Z,1.60
2024-02-03T01:39:33.414Z,1.60
2024-02-03T01:42:03.683Z,1.48
2024-02-03T01:44:37.004Z,1.63
2024-02-03T01:47:07.545Z,1.45
2024-02-03T01:49:38.070Z,1.50
2024-02-03T01:52:12.862Z,1.42
2024-02-03T01:54:44.880Z,1.60
2024-02-03T01:57:16.504Z,1.55
2024-02-03T01:59:48.205Z,1.20
2024-02-03T02:02:18.370Z,1.58
2024-02-03T02:04:48.695Z,1.48
2024-02-03T02:07:23.671Z,1.27
2024-02-03T02:09:56.618Z,1.35
2024-02-03T02:12:26.972Z,1.27
2024-02-03T02:14:57.179Z,1.52
2024-02-03T02:17:27.475Z,1.60
2024-02-03T02:19:57.687Z,1.65
2024-02-03T02:22:30.500Z,1.50
2024-02-03T02:25:00.659Z,1.40
2024-02-03T02:27:30.934Z,1.30
2024-02-03T02:30:01.421Z,1.27
2024-02-03T02:32:31.653Z,1.70
2024-02-03T02:35:01.946Z,1.35
2024-02-03T02:37:34.890Z,1.67
2024-02-03T02:40:06.051Z,1.52
2024-02-03T02:42:36.210Z,1.50
2024-02-03T02:45:07.350Z,1.52
2024-02-03T02:47:37.649Z,1.25
2024-02-03T02:50:09.711Z,1.40
2024-02-03T02:52:43.404Z,1.70
2024-02-03T02:55:13.605Z,1.42
2024-02-03T02:57:43.720Z,1.70
2024-02-03T03:00:15.354Z,1.63
2024-02-03T03:02:45.532Z,1.38
2024-02-03T03:05:15.796Z,1.30
2024-02-03T03:07:48.921Z,1.30
2024-02-03T03:10:19.284Z,1.60
2024-02-03T03:12:49.550Z,1.52
2024-02-03T03:15:20.059Z,1.70
2024-02-03T03:17:50.269Z,1.30
2024-02-03T03:20:20.789Z,1.50
2024-02-03T03:22:53.600Z,1.20
2024-02-03T03:25:23.795Z,0.88
2024-02-03T03:30:40.979Z,1.20
2024-02-03T03:33:11.631Z,1.20
2024-02-03T03:35:41.910Z,1.10
2024-02-03T03:38:12.578Z,1.30
2024-02-03T03:40:42.778Z,1.25
2024-02-03T03:43:12.937Z,1.27
2024-02-03T03:45:45.847Z,1.05
2024-02-03T03:48:16.351Z,1.35
2024-02-03T03:50:46.863Z,1.20
2024-02-03T03:53:17.722Z,1.30
2024-02-03T03:55:47.895Z,1.38
2024-02-03T03:58:18.208Z,1.63
2024-02-03T04:00:51.247Z,1.25
2024-02-03T04:03:21.552Z,1.58
2024-02-03T04:05:51.712Z,1.48
2024-02-03T04:08:21.940Z,1.10
2024-02-03T04:10:52.307Z,1.25
2024-02-03T04:13:22.588Z,1.33
2024-02-03T04:15:55.453Z,1.10
2024-02-03T04:18:27.333Z,1.10
2024-02-03T04:20:57.744Z,1.38
2024-02-03T04:23:28.008Z,1.10
2024-02-03T04:25:58.244Z,1.08
2024-02-03T04:28:28.462Z,1.80
2024-02-03T04:31:01.280Z,1.30
2024-02-03T04:33:31.500Z,1.23
2024-02-03T04:36:01.918Z,1.20
2024-02-03T04:38:32.089Z,1.20
2024-02-03T04:41:02.405Z,1.27
2024-02-03T04:43:32.959Z,1.20
2024-02-03T04:46:06.237Z,1.10
2024-02-03T04:48:38.542Z,1.40
2024-02-03T04:51:09.002Z,1.23
2024-02-03T04:53:40.777Z,1.40
2024-02-03T04:56:11.415Z,1.40
2024-02-03T04:58:41.894Z,1.08
2024-02-03T05:01:14.703Z,1.30
2024-02-03T05:03:45.342Z,1.50
2024-02-03T05:06:15.714Z,1.20
2024-02-03T05:08:47.388Z,1.20
2024-02-03T05:11:19.891Z,1.30
2024-02-03T05:13:50.099Z,1.38
2024-02-03T05:16:22.912Z,1.25
2024-02-03T05:18:53.283Z,1.20
2024-02-03T05:21:23.584Z,1.20
2024-02-03T05:23:53.908Z,1.48
2024-02-03T05:26:24.086Z,1.23
2024-02-03T05:28:54.501Z,1.23
2024-02-03T05:31:27.279Z,1.33
2024-02-03T05:33:57.729Z,1.20
2024-02-03T05:36:28.039Z,1.40
2024-02-03T05:38:58.471Z,1.20
2024-02-03T05:41:28.667Z,1.25
2024-02-03T05:43:58.863Z,1.10
2024-02-03T05:46:35.515Z,1.17
2024-02-03T05:49:06.059Z,1.27
2024-02-03T05:51:36.539Z,1.20
2024-02-03T05:54:07.160Z,1.10
2024-02-03T05:56:40.309Z,1.20
2024-02-03T05:59:26.820Z,1.20
2024-02-03T06:02:03.356Z,1.00
2024-02-03T06:04:33.645Z,1.25
2024-02-03T06:07:03.987Z,1.00
2024-02-03T06:09:35.556Z,1.05
2024-02-03T06:12:05.895Z,1.23
2024-02-03T06:14:36.795Z,1.10
2024-02-03T06:17:10.618Z,1.02
2024-02-03T06:19:43.888Z,1.13
2024-02-03T06:22:14.857Z,1.30
2024-02-03T06:24:45.298Z,1.20
2024-02-03T06:27:15.542Z,1.10
2024-02-03T06:29:45.924Z,1.20
2024-02-03T06:32:18.910Z,1.55
2024-02-03T06:34:49.168Z,1.30
2024-02-03T06:37:19.538Z,1.13
2024-02-03T06:39:49.777Z,1.10
2024-02-03T06:42:19.970Z,1.35
2024-02-03T06:44:52.412Z,0.88
2024-02-03T06:47:26.177Z,1.30
2024-02-03T06:49:56.437Z,1.33
2024-02-03T06:52:26.626Z,0.77
2024-02-03T06:54:56.921Z,1.08
2024-02-03T06:57:27.236Z,1.10
2024-02-03T06:59:57.824Z,1.00
2024-02-03T07:02:30.582Z,1.08
2024-02-03T07:05:00.966Z,0.90
2024-02-03T07:07:31.199Z,1.08
2024-02-03T07:10:02.533Z,0.90
2024-02-03T07:12:33.163Z,1.20
2024-02-03T07:15:03.908Z,1.20
2024-02-03T07:17:38.088Z,1.15
2024-02-03T07:20:09.256Z,1.30
2024-02-03T07:22:39.473Z,1.20
2024-02-03T07:25:10.558Z,1.10
2024-02-03T07:27:41.058Z,1.05
2024-02-03T07:30:11.708Z,1.33
2024-02-03T07:32:45.806Z,1.35
2024-02-03T07:35:16.117Z,1.20
2024-02-03T07:37:46.426Z,1.00
2024-02-03T07:40:17.426Z,1.23
2024-02-03T07:42:47.601Z,1.35
2024-02-03T07:45:18.077Z,2.05
2024-02-03T07:47:51.075Z,1.60
2024-02-03T07:50:23.771Z,2.05
2024-02-03T07:52:54.287Z,2.13
2024-02-03T07:55:24.684Z,2.08
2024-02-03T07:57:54.950Z,2.53
2024-02-03T08:00:25.874Z,2.90
2024-02-03T08:02:58.828Z,3.03
2024-02-03T08:05:29.264Z,2.78
2024-02-03T08:07:59.531Z,2.53
2024-02-03T08:10:30.404Z,3.97
2024-02-03T08:13:00.692Z,3.60
2024-02-03T08:15:31.102Z,3.10
2024-02-03T08:18:06.016Z,3.17
2024-02-03T08:20:36.333Z,2.53
2024-02-03T08:23:06.876Z,3.55
2024-02-03T08:25:37.006Z,3.20
2024-02-03T08:28:07.867Z,3.22
2024-02-03T08:30:38.928Z,3.30
2024-02-03T08:33:13.907Z,3.25
2024-02-03T08:35:45.126Z,3.20
2024-02-03T08:38:15.486Z,3.13
2024-02-03T08:40:46.008Z,3.45
2024-02-03T08:43:16.603Z,2.60
2024-02-03T08:45:47.053Z,3.35
2024-02-03T08:48:20.167Z,3.17
2024-02-03T08:50:50.442Z,3.85
2024-02-03T08:53:20.637Z,3.25
2024-02-03T08:55:50.845Z,3.70
2024-02-03T08:58:21.037Z,3.45
2024-02-03T09:00:51.736Z,4.18
2024-02-03T09:03:24.681Z,3.83
2024-02-03T09:05:55.072Z,3.45
2024-02-03T09:08:25.346Z,3.90
2024-02-03T09:10:57.334Z,4.00
2024-02-03T09:13:27.479Z,3.92
2024-02-03T09:15:57.757Z,3.38
2024-02-03T09:18:31.212Z,4.10
2024-02-03T09:21:01.490Z,3.90
2024-02-03T09:23:31.781Z,3.70
2024-02-03T09:26:02.018Z,3.95
2024-02-03T09:28:32.246Z,3.53
2024-02-03T09:31:03.335Z,3.30
2024-02-03T09:33:36.519Z,3.50
2024-02-03T09:36:08.813Z,3.90
2024-02-03T09:38:39.051Z,3.55
2024-02-03T09:41:10.384Z,3.45
2024-02-03T09:43:41.236Z,4.05
2024-02-03T09:46:11.925Z,3.70
2024-02-03T09:48:44.897Z,4.28
2024-02-03T09:51:15.762Z,3.45
2024-02-03T09:53:47.624Z,3.75
2024-02-03T09:56:18.093Z,4.35
2024-02-03T09:58:48.449Z,3.67
2024-02-03T10:01:19.069Z,3.70
2024-02-03T10:03:59.472Z,3.67
2024-02-03T10:06:29.836Z,3.80
2024-02-03T10:09:00.196Z,4.13
2024-02-03T10:11:42.145Z,3.88
2024-02-03T10:14:12.467Z,3.70
2024-02-03T10:16:50.854Z,4.10
2024-02-03T10:19:24.691Z,4.15
2024-02-03T10:21:55.404Z,3.83
2024-02-03T10:24:29.047Z,4.40
2024-02-03T10:27:04.352Z,4.18
2024-02-03T10:29:35.002Z,4.28
2024-02-03T10:32:05.585Z,4.28
2024-02-03T10:34:39.588Z,4.13
2024-02-03T10:37:10.010Z,4.38
2024-02-03T10:39:43.431Z,4.13
2024-02-03T10:42:18.435Z,3.92
2024-02-03T10:44:51.268Z,4.68
2024-02-03T10:47:25.158Z,4.05
2024-02-03T10:50:01.419Z,3.70
2024-02-03T10:52:34.624Z,3.78
2024-02-03T10:55:05.988Z,3.58
2024-02-03T10:57:36.659Z,3.78
2024-02-03T11:00:08.473Z,3.35
2024-02-03T11:02:38.817Z,3.63
2024-02-03T11:05:13.879Z,3.83
2024-02-03T11:07:49.671Z,3.47
2024-02-03T11:10:20.174Z,3.40
2024-02-03T11:12:52.169Z,6.03
2024-02-03T11:15:22.567Z,6.82
2024-02-03T11:17:55.291Z,6.60
2024-02-03T11:20:28.602Z,8.80
2024-02-03T11:23:01.002Z,7.47
2024-02-03T11:25:32.014Z,8.05
2024-02-03T11:28:02.273Z,8.73
2024-02-03T11:30:32.573Z,8.20
2024-02-03T11:33:03.890Z,8.75
2024-02-03T11:35:36.879Z,8.55
2024-02-03T11:38:11.160Z,7.63
2024-02-03T11:40:48.112Z,8.05
2024-02-03T11:43:19.337Z,8.90
2024-02-03T11:45:50.519Z,7.85
2024-02-03T11:48:21.042Z,8.10
2024-02-03T11:50:55.166Z,8.20
2024-02-03T11:53:27.544Z,6.80
2024-02-03T11:55:58.151Z,7.50
2024-02-03T11:58:28.511Z,6.53
2024-02-03T12:01:08.220Z,7.60
2024-02-03T12:03:39.925Z,6.10
2024-02-03T12:06:14.421Z,7.05
2024-02-03T12:08:44.951Z,6.32
2024-02-03T12:11:15.468Z,6.22
2024-02-03T12:13:46.777Z,6.40
2024-02-03T12:16:17.047Z,6.03
2024-02-03T12:18:47.450Z,7.57
2024-02-03T12:21:20.815Z,6.75
2024-02-03T12:23:51.184Z,6.38
2024-02-03T12:26:22.560Z,6.30
2024-02-03T12:28:52.818Z,5.75
2024-02-03T12:31:23.000Z,5.68
2024-02-03T12:33:53.459Z,5.65
2024-02-03T12:36:26.480Z,6.22
2024-02-03T12:38:56.757Z,6.45
2024-02-03T12:41:27.124Z,5.47
2024-02-03T12:43:57.331Z,4.80
2024-02-03T12:46:27.523Z,5.10
2024-02-03T12:48:57.929Z,5.68
2024-02-03T12:51:30.993Z,5.40
2024-02-03T12:54:01.680Z,5.15
2024-02-03T12:56:32.045Z,5.57
2024-02-03T12:59:02.325Z,5.03
2024-02-03T13:01:32.844Z,5.03
2024-02-03T13:04:03.188Z,5.10
2024-02-03T13:06:36.061Z,5.10
2024-02-03T13:09:06.507Z,5.65
2024-02-03T13:11:36.854Z,5.55
2024-02-03T13:14:07.204Z,5.00
2024-02-03T13:16:37.569Z,4.50
2024-02-03T13:19:07.911Z,4.75
2024-02-03T13:21:40.893Z,4.70
2024-02-03T13:24:11.838Z,4.93
2024-02-03T13:26:43.079Z,4.90
2024-02-03T13:29:13.479Z,4.40
2024-02-03T13:31:43.629Z,4.30
2024-02-03T13:34:18.542Z,4.47
2024-02-03T13:36:53.684Z,4.25
2024-02-03T13:39:24.057Z,4.25
2024-02-03T13:41:54.650Z,4.80
2024-02-03T13:44:24.859Z,4.18
2024-02-03T13:46:55.071Z,4.47
2024-02-03T13:49:25.357Z,4.45
2024-02-03T13:51:58.362Z,4.43
2024-02-03T13:54:28.834Z,4.15
2024-02-03T13:56:59.820Z,5.20
2024-02-03T13:59:31.195Z,4.22
2024-02-03T14:02:01.821Z,4.18
2024-02-03T14:04:32.268Z,4.28
2024-02-03T14:07:05.775Z,4.10
2024-02-03T14:09:36.001Z,3.00
2024-02-03T14:12:08.158Z,3.88
2024-02-03T14:14:38.523Z,3.40
2024-02-03T14:17:09.039Z,3.38
2024-02-03T14:19:39.562Z,3.63
2024-02-03T14:22:12.822Z,3.95
2024-02-03T14:24:43.088Z,3.80
2024-02-03T14:27:13.612Z,3.92
2024-02-03T14:29:43.783Z,3.25
2024-02-03T14:32:14.026Z,3.08
2024-02-03T14:34:44.399Z,3.58
2024-02-03T14:37:18.713Z,3.53
2024-02-03T14:39:49.192Z,3.53
2024-02-03T14:42:19.622Z,3.67
2024-02-03T14:44:49.938Z,3.13
2024-02-03T14:47:20.260Z,3.28
2024-02-03T14:49:50.673Z,3.40
2024-02-03T14:52:23.868Z,2.80
2024-02-03T14:54:54.193Z,3.50
2024-02-03T14:57:24.655Z,3.28
2024-02-03T14:59:54.940Z,3.13
2024-02-03T15:02:25.712Z,3.40
2024-02-03T15:04:56.008Z,4.05
2024-02-03T15:07:29.219Z,3.40
2024-02-03T15:09:59.436Z,3.47
2024-02-03T15:12:31.952Z,3.28
2024-02-03T15:15:02.246Z,4.43
2024-02-03T15:17:32.600Z,3.42
2024-02-03T15:20:03.584Z,3.20
2024-02-03T15:22:36.533Z,3.45
2024-02-03T15:25:07.852Z,3.72
2024-02-03T15:27:38.309Z,3.90
2024-02-03T15:30:10.289Z,3.35
2024-02-03T15:32:40.566Z,3.63
2024-02-03T15:35:11.804Z,2.80
2024-02-03T15:37:45.771Z,3.50
2024-02-03T15:40:16.724Z,3.50
2024-02-03T15:42:54.956Z,4.05
2024-02-03T15:45:28.294Z,3.80
2024-02-03T15:47:58.863Z,3.72
2024-02-03T15:50:29.453Z,3.78
2024-02-03T15:53:03.651Z,3.00
2024-02-03T15:55:33.971Z,3.60
2024-02-03T15:58:04.659Z,3.42
2024-02-03T16:00:35.304Z,3.05
2024-02-03T16:03:06.612Z,2.92
2024-02-03T16:05:37.022Z,2.95
2024-02-03T16:08:10.407Z,3.20
2024-02-03T16:10:40.676Z,3.05
2024-02-03T16:13:11.808Z,3.20
2024-02-03T16:15:42.000Z,3.13
2024-02-03T16:18:12.967Z,3.00
2024-02-03T16:20:43.625Z,2.95
2024-02-03T16:23:16.648Z,3.10
2024-02-03T16:25:46.925Z,2.63
2024-02-03T16:28:17.243Z,2.80
2024-02-03T16:30:48.232Z,2.85
2024-02-03T16:33:18.823Z,2.80
2024-02-03T16:35:49.652Z,2.78
2024-02-03T16:38:22.864Z,2.58
2024-02-03T16:40:53.142Z,2.75
2024-02-03T16:43:23.582Z,2.65
2024-02-03T16:45:53.923Z,2.15
2024-02-03T16:48:24.639Z,2.72
2024-02-03T16:50:52.294Z,2.60
2024-02-03T16:53:25.123Z,2.47
2024-02-03T16:55:55.368Z,2.47
2024-02-03T16:58:25.673Z,2.60
2024-02-03T17:00:56.072Z,2.85
2024-02-03T17:03:26.479Z,2.95
2024-02-03T17:05:56.772Z,2.53
2024-02-03T17:08:30.269Z,2.58
2024-02-03T17:11:00.432Z,2.38
2024-02-03T17:13:30.606Z,3.03
2024-02-03T17:16:00.824Z,2.40
2024-02-03T17:18:31.197Z,2.83
2024-02-03T17:21:01.545Z,2.53
2024-02-03T17:23:34.375Z,2.13
2024-02-03T17:26:06.287Z,2.50
2024-02-03T17:28:37.024Z,2.45
2024-02-03T17:31:07.912Z,2.38
2024-02-03T17:33:38.587Z,2.03
2024-02-03T17:36:09.720Z,2.65
2024-02-03T17:38:42.927Z,2.92
2024-02-03T17:41:13.477Z,2.67
2024-02-03T17:43:44.107Z,2.92
2024-02-03T17:46:17.920Z,2.45
2024-02-03T17:48:48.638Z,2.67
2024-02-03T17:51:19.287Z,2.70
2024-02-03T17:53:52.666Z,2.75
2024-02-03T17:56:23.422Z,2.55
2024-02-03T17:58:53.940Z,2.30
2024-02-03T18:01:24.613Z,2.85
2024-02-03T18:03:55.408Z,1.95
2024-02-03T18:06:26.429Z,2.53
2024-02-03T18:08:59.542Z,2.42
2024-02-03T18:11:31.863Z,2.47
2024-02-03T18:14:03.589Z,2.25
2024-02-03T18:16:34.510Z,2.95
2024-02-03T18:19:06.766Z,2.15
2024-02-03T18:21:37.500Z,2.40
2024-02-03T18:24:10.954Z,2.33
2024-02-03T18:26:41.589Z,2.40
2024-02-03T18:29:12.103Z,2.28
2024-02-03T18:31:42.573Z,2.58
2024-02-03T18:34:13.359Z,2.20
2024-02-03T18:36:44.147Z,2.75
2024-02-03T18:39:18.107Z,2.63
2024-02-03T18:41:48.716Z,2.35
2024-02-03T18:44:19.216Z,2.63
2024-02-03T18:46:49.881Z,2.40
2024-02-03T18:49:20.525Z,2.58
2024-02-03T18:51:51.187Z,2.55
2024-02-03T18:54:24.605Z,2.75
2024-02-03T18:56:55.157Z,2.72
2024-02-03T18:59:25.837Z,2.42
2024-02-03T19:01:57.069Z,2.35
2024-02-03T19:04:27.645Z,2.22
2024-02-03T19:06:58.198Z,2.40
2024-02-03T19:09:34.337Z,3.05
2024-02-03T19:12:07.852Z,2.40
2024-02-03T19:14:39.813Z,1.95
2024-02-03T19:17:10.423Z,2.78
2024-02-03T19:19:43.226Z,2.40
2024-02-03T19:22:14.448Z,2.75
2024-02-03T19:24:47.647Z,2.67
2024-02-03T19:27:18.345Z,2.40
2024-02-03T19:29:48.879Z,3.22
2024-02-03T19:32:19.507Z,2.33
2024-02-03T19:34:50.135Z,3.13
2024-02-03T19:37:20.831Z,2.35
2024-02-03T19:39:54.455Z,2.55
2024-02-03T19:42:25.014Z,3.00
2024-02-03T19:44:55.488Z,3.38
2024-02-03T19:47:25.982Z,2.70
2024-02-03T19:49:59.149Z,2.75
2024-02-03T19:52:29.958Z,2.90
2024-02-03T19:55:03.263Z,2.40
2024-02-03T19:57:34.239Z,3.17
2024-02-03T20:00:04.892Z,2.60
2024-02-03T20:02:36.698Z,2.30
2024-02-03T20:05:07.537Z,2.78
2024-02-03T20:07:39.533Z,2.92
2024-02-03T20:10:14.120Z,3.05
2024-02-03T20:12:45.011Z,2.90
2024-02-03T20:15:15.628Z,3.20
2024-02-03T20:17:46.416Z,2.50
2024-02-03T20:20:17.416Z,2.92
2024-02-03T20:22:48.202Z,3.20
2024-02-03T20:25:21.511Z,2.67
2024-02-03T20:27:52.167Z,2.60
2024-02-03T20:30:22.969Z,3.40
2024-02-03T20:32:53.724Z,2.95
2024-02-03T20:35:24.523Z,3.05
2024-02-03T20:37:55.116Z,2.47
2024-02-03T20:40:28.430Z,2.20
2024-02-03T20:42:59.246Z,2.72
2024-02-03T20:45:29.816Z,2.72
2024-02-03T20:48:00.485Z,2.35
2024-02-03T20:50:31.179Z,2.33
2024-02-03T20:53:02.091Z,3.10
2024-02-03T20:55:35.482Z,2.63
2024-02-03T20:58:06.447Z,2.67
2024-02-03T21:00:39.662Z,3.08
2024-02-03T21:03:11.398Z,2.65
2024-02-03T21:05:42.259Z,2.60
2024-02-03T21:08:13.368Z,2.75
2024-02-03T21:10:47.115Z,2.85
2024-02-03T21:13:19.659Z,2.30
2024-02-03T21:15:50.607Z,2.78
2024-02-03T21:18:23.056Z,2.40
2024-02-03T21:20:55.363Z,2.42
2024-02-03T21:23:27.578Z,2.75
2024-02-03T21:26:00.817Z,2.58
2024-02-03T21:28:31.351Z,2.78
2024-02-03T21:31:02.100Z,2.38
2024-02-03T21:33:32.844Z,2.75
2024-02-03T21:36:03.588Z,2.70
2024-02-03T21:38:34.064Z,2.88
2024-02-03T21:41:07.329Z,2.50
2024-02-03T21:43:37.895Z,2.20
2024-02-03T21:46:08.705Z,2.67
2024-02-03T21:48:39.376Z,2.38
2024-02-03T21:51:10.143Z,2.33
2024-02-03T21:53:40.771Z,2.13
2024-02-03T21:56:14.044Z,2.47
2024-02-03T21:58:44.701Z,2.40
2024-02-03T22:01:15.581Z,2.80
2024-02-03T22:03:47.116Z,2.25
2024-02-03T22:06:17.856Z,2.58
2024-02-03T22:08:48.494Z,2.33
2024-02-03T22:11:21.792Z,1.90
2024-02-03T22:13:52.427Z,2.45
2024-02-03T22:16:23.113Z,2.35
2024-02-03T22:18:53.749Z,2.45
2024-02-03T22:21:24.501Z,2.50
2024-02-03T22:23:54.983Z,2.25
2024-02-03T22:26:28.275Z,2.70
2024-02-03T22:28:58.893Z,2.30
2024-02-03T22:31:29.442Z,2.38
2024-02-03T22:34:00.128Z,2.50
2024-02-03T22:36:30.815Z,2.17
2024-02-03T22:39:01.512Z,2.20
2024-02-03T22:41:34.594Z,2.38
2024-02-03T22:44:05.181Z,2.20
2024-02-03T22:46:35.658Z,2.15
2024-02-03T22:49:06.455Z,2.58
2024-02-03T22:51:37.185Z,2.53
2024-02-03T22:54:07.797Z,1.73
2024-02-03T22:56:41.511Z,2.67
2024-02-03T22:59:13.383Z,2.83
2024-02-03T23:01:44.807Z,1.98
2024-02-03T23:04:16.613Z,2.30
2024-02-03T23:06:47.646Z,2.58
2024-02-03T23:09:20.350Z,1.83
2024-02-03T23:11:53.939Z,2.28
2024-02-03T23:14:26.125Z,2.15
2024-02-03T23:16:57.301Z,2.15
2024-02-03T23:19:28.499Z,2.05
2024-02-03T23:21:59.517Z,2.30
2024-02-03T23:24:30.520Z,2.63
2024-02-03T23:27:04.097Z,2.38
2024-02-03T23:29:35.313Z,2.00
2024-02-03T23:32:06.216Z,1.80
2024-02-03T23:34:37.281Z,2.00
2024-02-03T23:37:06.292Z,2.30
2024-02-03T23:39:38.471Z,2.03
2024-02-03T23:42:12.206Z,2.13
2024-02-03T23:44:43.437Z,2.30
2024-02-03T23:47:15.031Z,2.40
2024-02-03T23:49:46.281Z,2.33
2024-02-03T23:52:17.286Z,2.60
2024-02-03T23:54:48.455Z,2.22
2024-02-03T23:57:22.324Z,2.15
2024-02-03T23:59:53.824Z,2.15
